sensor_id;sensor_type;location;lat;lon;timestamp;pressure;altitude;pressure_sealevel;temperature;humidity
11810;BME280;5962;41.566;23.734;2024-03-29T00:01:32;95238.56;;;10.83;73.02
11810;BME280;5962;41.566;23.734;2024-03-29T00:03:58;95232.69;;;10.81;73.42
11810;BME280;5962;41.566;23.734;2024-03-29T00:06:24;95235.34;;;10.81;72.03
11810;BME280;5962;41.566;23.734;2024-03-29T00:08:50;95241.38;;;10.77;72.80
11810;BME280;5962;41.566;23.734;2024-03-29T00:11:18;95250.03;;;10.72;73.10
11810;BME280;5962;41.566;23.734;2024-03-29T00:13:44;95251.03;;;10.66;74.55
11810;BME280;5962;41.566;23.734;2024-03-29T00:16:10;95247.91;;;10.69;75.62
11810;BME280;5962;41.566;23.734;2024-03-29T00:18:36;95246.75;;;10.65;75.98
11810;BME280;5962;41.566;23.734;2024-03-29T00:21:02;95253.38;;;10.63;76.03
11810;BME280;5962;41.566;23.734;2024-03-29T00:23:28;95265.00;;;10.62;75.57
11810;BME280;5962;41.566;23.734;2024-03-29T00:25:54;95258.25;;;10.54;75.97
11810;BME280;5962;41.566;23.734;2024-03-29T00:28:22;95251.03;;;10.50;76.55
11810;BME280;5962;41.566;23.734;2024-03-29T00:30:48;95247.34;;;10.51;76.07
11810;BME280;5962;41.566;23.734;2024-03-29T00:33:14;95250.00;;;10.51;76.05
11810;BME280;5962;41.566;23.734;2024-03-29T00:35:40;95255.69;;;10.43;76.08
11810;BME280;5962;41.566;23.734;2024-03-29T00:38:06;95259.63;;;10.40;75.89
11810;BME280;5962;41.566;23.734;2024-03-29T00:40:32;95251.84;;;10.34;75.99
11810;BME280;5962;41.566;23.734;2024-03-29T00:42:58;95261.88;;;10.32;75.56
11810;BME280;5962;41.566;23.734;2024-03-29T00:45:25;95263.16;;;10.30;75.73
11810;BME280;5962;41.566;23.734;2024-03-29T00:47:51;95261.97;;;10.37;76.54
11810;BME280;5962;41.566;23.734;2024-03-29T00:50:17;95258.91;;;10.29;77.17
11810;BME280;5962;41.566;23.734;2024-03-29T00:52:43;95256.75;;;10.26;77.48
11810;BME280;5962;41.566;23.734;2024-03-29T00:55:09;95262.28;;;10.24;77.41
11810;BME280;5962;41.566;23.734;2024-03-29T00:57:35;95273.66;;;10.25;77.68
11810;BME280;5962;41.566;23.734;2024-03-29T01:00:02;95277.28;;;10.19;76.77
11810;BME280;5962;41.566;23.734;2024-03-29T01:02:29;95274.38;;;10.20;76.21
11810;BME280;5962;41.566;23.734;2024-03-29T01:04:55;95277.66;;;10.11;76.90
11810;BME280;5962;41.566;23.734;2024-03-29T01:07:21;95277.09;;;10.09;77.39
11810;BME280;5962;41.566;23.734;2024-03-29T01:09:47;95288.06;;;10.01;78.22
11810;BME280;5962;41.566;23.734;2024-03-29T01:12:13;95284.59;;;10.00;78.80
11810;BME280;5962;41.566;23.734;2024-03-29T01:14:39;95275.44;;;9.91;79.23
11810;BME280;5962;41.566;23.734;2024-03-29T01:17:05;95270.72;;;9.93;79.28
11810;BME280;5962;41.566;23.734;2024-03-29T01:19:33;95271.00;;;9.80;79.37
11810;BME280;5962;41.566;23.734;2024-03-29T01:21:59;95271.56;;;9.82;79.65
11810;BME280;5962;41.566;23.734;2024-03-29T01:24:25;95275.56;;;9.85;80.91
11810;BME280;5962;41.566;23.734;2024-03-29T01:26:51;95270.19;;;9.80;80.54
11810;BME280;5962;41.566;23.734;2024-03-29T01:29:17;95265.78;;;9.85;80.51
11810;BME280;5962;41.566;23.734;2024-03-29T01:31:43;95270.69;;;9.77;80.90
11810;BME280;5962;41.566;23.734;2024-03-29T01:34:09;95280.91;;;9.73;80.73
11810;BME280;5962;41.566;23.734;2024-03-29T01:36:36;95273.94;;;9.67;80.57
11810;BME280;5962;41.566;23.734;2024-03-29T01:39:02;95283.22;;;9.70;79.73
11810;BME280;5962;41.566;23.734;2024-03-29T01:41:28;95279.38;;;9.61;79.71
11810;BME280;5962;41.566;23.734;2024-03-29T01:43:55;95280.06;;;9.56;80.12
11810;BME280;5962;41.566;23.734;2024-03-29T01:46:23;95287.31;;;9.49;80.49
11810;BME280;5962;41.566;23.734;2024-03-29T01:48:50;95299.19;;;9.47;81.14
11810;BME280;5962;41.566;23.734;2024-03-29T01:51:18;95293.31;;;9.45;81.77
11810;BME280;5962;41.566;23.734;2024-03-29T01:53:49;95297.81;;;9.44;82.11
11810;BME280;5962;41.566;23.734;2024-03-29T01:56:17;95297.00;;;9.44;82.29
11810;BME280;5962;41.566;23.734;2024-03-29T01:58:45;95309.75;;;9.47;82.03
11810;BME280;5962;41.566;23.734;2024-03-29T02:01:12;95311.94;;;9.50;82.14
11810;BME280;5962;41.566;23.734;2024-03-29T02:03:40;95314.16;;;9.41;82.57
11810;BME280;5962;41.566;23.734;2024-03-29T02:06:08;95318.25;;;9.49;82.23
11810;BME280;5962;41.566;23.734;2024-03-29T02:08:36;95329.28;;;9.46;82.24
11810;BME280;5962;41.566;23.734;2024-03-29T02:11:04;95327.81;;;9.38;82.17
11810;BME280;5962;41.566;23.734;2024-03-29T02:13:32;95338.97;;;9.40;82.07
11810;BME280;5962;41.566;23.734;2024-03-29T02:15:59;95329.75;;;9.43;82.39
11810;BME280;5962;41.566;23.734;2024-03-29T02:18:26;95327.56;;;9.40;81.68
11810;BME280;5962;41.566;23.734;2024-03-29T02:20:53;95330.59;;;9.32;82.65
11810;BME280;5962;41.566;23.734;2024-03-29T02:23:26;95330.25;;;9.29;83.03
11810;BME280;5962;41.566;23.734;2024-03-29T02:25:55;95314.28;;;9.12;82.75
11810;BME280;5962;41.566;23.734;2024-03-29T02:28:23;95319.94;;;9.16;82.22
11810;BME280;5962;41.566;23.734;2024-03-29T02:30:50;95318.53;;;9.13;82.25
11810;BME280;5962;41.566;23.734;2024-03-29T02:33:17;95320.63;;;9.00;82.47
11810;BME280;5962;41.566;23.734;2024-03-29T02:35:44;95316.75;;;8.91;83.20
11810;BME280;5962;41.566;23.734;2024-03-29T02:38:12;95317.53;;;8.91;82.73
11810;BME280;5962;41.566;23.734;2024-03-29T02:40:39;95318.44;;;8.85;83.99
11810;BME280;5962;41.566;23.734;2024-03-29T02:43:08;95331.19;;;8.88;85.44
11810;BME280;5962;41.566;23.734;2024-03-29T02:45:35;95322.81;;;8.91;86.14
11810;BME280;5962;41.566;23.734;2024-03-29T02:48:02;95328.34;;;8.90;86.13
11810;BME280;5962;41.566;23.734;2024-03-29T02:50:28;95334.66;;;8.89;85.68
11810;BME280;5962;41.566;23.734;2024-03-29T02:52:55;95340.16;;;8.99;84.97
11810;BME280;5962;41.566;23.734;2024-03-29T02:55:21;95351.09;;;8.91;85.88
11810;BME280;5962;41.566;23.734;2024-03-29T02:57:48;95344.06;;;8.85;86.29
11810;BME280;5962;41.566;23.734;2024-03-29T03:00:16;95351.44;;;8.94;84.98
11810;BME280;5962;41.566;23.734;2024-03-29T03:02:43;95353.16;;;8.89;84.67
11810;BME280;5962;41.566;23.734;2024-03-29T03:05:09;95354.75;;;8.78;85.30
11810;BME280;5962;41.566;23.734;2024-03-29T03:07:36;95352.91;;;8.79;85.32
11810;BME280;5962;41.566;23.734;2024-03-29T03:10:21;95352.78;;;8.74;86.12
11810;BME280;5962;41.566;23.734;2024-03-29T03:13:05;95347.63;;;8.67;85.82
11810;BME280;5962;41.566;23.734;2024-03-29T03:15:33;95354.63;;;8.62;86.21
11810;BME280;5962;41.566;23.734;2024-03-29T03:18:00;95353.00;;;8.61;85.54
11810;BME280;5962;41.566;23.734;2024-03-29T03:20:26;95349.09;;;8.52;86.54
11810;BME280;5962;41.566;23.734;2024-03-29T03:22:56;95337.97;;;8.50;87.92
11810;BME280;5962;41.566;23.734;2024-03-29T03:25:23;95345.50;;;8.46;87.87
11810;BME280;5962;41.566;23.734;2024-03-29T03:27:49;95342.53;;;8.43;88.53
11810;BME280;5962;41.566;23.734;2024-03-29T03:30:16;95346.78;;;8.44;88.63
11810;BME280;5962;41.566;23.734;2024-03-29T03:32:44;95352.50;;;8.41;89.75
11810;BME280;5962;41.566;23.734;2024-03-29T03:35:10;95361.13;;;8.37;89.39
11810;BME280;5962;41.566;23.734;2024-03-29T03:37:37;95365.81;;;8.35;89.67
11810;BME280;5962;41.566;23.734;2024-03-29T03:40:04;95366.63;;;8.35;89.84
11810;BME280;5962;41.566;23.734;2024-03-29T03:42:32;95369.13;;;8.30;91.08
11810;BME280;5962;41.566;23.734;2024-03-29T03:44:58;95364.28;;;8.27;91.21
11810;BME280;5962;41.566;23.734;2024-03-29T03:47:25;95359.25;;;8.26;91.20
11810;BME280;5962;41.566;23.734;2024-03-29T03:49:52;95367.63;;;8.23;90.56
11810;BME280;5962;41.566;23.734;2024-03-29T03:52:19;95367.03;;;8.21;91.25
11810;BME280;5962;41.566;23.734;2024-03-29T03:54:45;95365.78;;;8.23;89.92
11810;BME280;5962;41.566;23.734;2024-03-29T03:57:12;95377.88;;;8.13;90.38
11810;BME280;5962;41.566;23.734;2024-03-29T03:59:38;95389.47;;;8.12;91.56
11810;BME280;5962;41.566;23.734;2024-03-29T04:02:05;95406.50;;;8.16;92.63
11810;BME280;5962;41.566;23.734;2024-03-29T04:04:31;95414.22;;;8.11;94.70
11810;BME280;5962;41.566;23.734;2024-03-29T04:07:00;95412.13;;;8.01;95.72
11810;BME280;5962;41.566;23.734;2024-03-29T04:09:26;95417.41;;;8.01;95.36
11810;BME280;5962;41.566;23.734;2024-03-29T04:11:53;95419.34;;;8.06;95.32
11810;BME280;5962;41.566;23.734;2024-03-29T04:14:19;95413.28;;;8.05;95.27
11810;BME280;5962;41.566;23.734;2024-03-29T04:16:46;95413.06;;;8.07;95.62
11810;BME280;5962;41.566;23.734;2024-03-29T04:19:12;95415.84;;;8.12;95.18
11810;BME280;5962;41.566;23.734;2024-03-29T04:21:39;95422.72;;;8.13;93.79
11810;BME280;5962;41.566;23.734;2024-03-29T04:24:07;95424.06;;;8.22;92.72
11810;BME280;5962;41.566;23.734;2024-03-29T04:26:35;95429.69;;;8.25;91.87
11810;BME280;5962;41.566;23.734;2024-03-29T04:29:02;95437.06;;;8.35;91.63
11810;BME280;5962;41.566;23.734;2024-03-29T04:31:31;95454.56;;;8.47;90.79
11810;BME280;5962;41.566;23.734;2024-03-29T04:33:56;95444.03;;;8.58;89.73
11810;BME280;5962;41.566;23.734;2024-03-29T04:36:23;95446.00;;;8.63;89.31
11810;BME280;5962;41.566;23.734;2024-03-29T04:38:50;95443.28;;;8.69;87.46
11810;BME280;5962;41.566;23.734;2024-03-29T04:41:18;95449.69;;;8.73;87.17
11810;BME280;5962;41.566;23.734;2024-03-29T04:43:45;95451.56;;;8.84;86.22
11810;BME280;5962;41.566;23.734;2024-03-29T04:46:13;95453.88;;;8.92;86.05
11810;BME280;5962;41.566;23.734;2024-03-29T04:48:42;95457.78;;;9.01;85.23
11810;BME280;5962;41.566;23.734;2024-03-29T04:51:11;95467.44;;;9.19;83.72
11810;BME280;5962;41.566;23.734;2024-03-29T04:53:39;95463.56;;;9.32;81.35
11810;BME280;5962;41.566;23.734;2024-03-29T04:56:06;95477.13;;;9.47;77.40
11810;BME280;5962;41.566;23.734;2024-03-29T04:58:34;95475.50;;;9.46;81.06
11810;BME280;5962;41.566;23.734;2024-03-29T05:01:02;95497.03;;;9.50;81.72
11810;BME280;5962;41.566;23.734;2024-03-29T05:03:29;95496.22;;;9.49;82.16
11810;BME280;5962;41.566;23.734;2024-03-29T05:05:56;95503.22;;;9.55;82.54
11810;BME280;5962;41.566;23.734;2024-03-29T05:08:23;95510.47;;;9.60;82.51
11810;BME280;5962;41.566;23.734;2024-03-29T05:10:50;95507.00;;;9.71;81.16
11810;BME280;5962;41.566;23.734;2024-03-29T05:13:18;95517.25;;;9.67;81.48
11810;BME280;5962;41.566;23.734;2024-03-29T05:15:46;95508.50;;;9.67;81.51
11810;BME280;5962;41.566;23.734;2024-03-29T05:18:14;95504.00;;;9.79;81.00
11810;BME280;5962;41.566;23.734;2024-03-29T05:20:41;95508.72;;;9.88;81.34
11810;BME280;5962;41.566;23.734;2024-03-29T05:23:12;95515.75;;;9.94;81.57
11810;BME280;5962;41.566;23.734;2024-03-29T05:25:40;95523.09;;;9.92;81.45
11810;BME280;5962;41.566;23.734;2024-03-29T05:28:06;95515.28;;;9.86;78.82
11810;BME280;5962;41.566;23.734;2024-03-29T05:30:34;95514.38;;;9.80;79.13
11810;BME280;5962;41.566;23.734;2024-03-29T05:33:03;95510.78;;;9.86;79.67
11810;BME280;5962;41.566;23.734;2024-03-29T05:35:30;95526.66;;;9.86;79.75
11810;BME280;5962;41.566;23.734;2024-03-29T05:37:57;95525.88;;;9.86;78.98
11810;BME280;5962;41.566;23.734;2024-03-29T05:40:24;95527.59;;;10.03;77.70
11810;BME280;5962;41.566;23.734;2024-03-29T05:42:53;95529.22;;;10.04;83.96
11810;BME280;5962;41.566;23.734;2024-03-29T05:45:25;95540.38;;;10.06;85.89
11810;BME280;5962;41.566;23.734;2024-03-29T05:47:53;95542.13;;;10.01;85.87
11810;BME280;5962;41.566;23.734;2024-03-29T05:50:24;95557.84;;;9.96;87.25
11810;BME280;5962;41.566;23.734;2024-03-29T05:52:51;95549.34;;;9.82;87.94
11810;BME280;5962;41.566;23.734;2024-03-29T05:55:19;95550.25;;;9.88;87.33
11810;BME280;5962;41.566;23.734;2024-03-29T05:57:46;95543.69;;;9.79;88.21
11810;BME280;5962;41.566;23.734;2024-03-29T06:00:14;95540.25;;;9.78;88.42
11810;BME280;5962;41.566;23.734;2024-03-29T06:02:42;95531.97;;;9.86;88.96
11810;BME280;5962;41.566;23.734;2024-03-29T06:05:10;95531.75;;;9.76;90.52
11810;BME280;5962;41.566;23.734;2024-03-29T06:07:38;95523.94;;;9.81;89.89
11810;BME280;5962;41.566;23.734;2024-03-29T06:10:06;95521.28;;;9.70;90.34
11810;BME280;5962;41.566;23.734;2024-03-29T06:12:34;95510.94;;;9.68;90.79
11810;BME280;5962;41.566;23.734;2024-03-29T06:15:05;95528.63;;;9.91;89.33
11810;BME280;5962;41.566;23.734;2024-03-29T06:17:50;95522.66;;;9.95;88.85
11810;BME280;5962;41.566;23.734;2024-03-29T06:20:17;95520.25;;;10.05;87.92
11810;BME280;5962;41.566;23.734;2024-03-29T06:22:46;95515.16;;;10.15;85.81
11810;BME280;5962;41.566;23.734;2024-03-29T06:25:13;95521.47;;;10.26;83.42
11810;BME280;5962;41.566;23.734;2024-03-29T06:27:47;95542.59;;;10.48;80.73
11810;BME280;5962;41.566;23.734;2024-03-29T06:30:15;95547.66;;;10.50;79.62
11810;BME280;5962;41.566;23.734;2024-03-29T06:32:42;95557.41;;;10.61;80.91
11810;BME280;5962;41.566;23.734;2024-03-29T06:35:10;95562.13;;;10.70;78.51
11810;BME280;5962;41.566;23.734;2024-03-29T06:37:37;95569.94;;;10.65;78.86
11810;BME280;5962;41.566;23.734;2024-03-29T06:40:07;95575.22;;;10.77;78.63
11810;BME280;5962;41.566;23.734;2024-03-29T06:42:34;95574.69;;;10.91;78.31
11810;BME280;5962;41.566;23.734;2024-03-29T06:45:01;95571.28;;;11.07;77.25
11810;BME280;5962;41.566;23.734;2024-03-29T06:47:31;95577.59;;;11.18;76.05
11810;BME280;5962;41.566;23.734;2024-03-29T06:49:58;95573.34;;;11.33;74.58
11810;BME280;5962;41.566;23.734;2024-03-29T06:52:25;95569.66;;;11.50;71.79
11810;BME280;5962;41.566;23.734;2024-03-29T06:54:52;95581.44;;;11.54;72.08
11810;BME280;5962;41.566;23.734;2024-03-29T06:57:20;95584.03;;;11.66;71.58
11810;BME280;5962;41.566;23.734;2024-03-29T06:59:51;95574.28;;;11.71;70.70
11810;BME280;5962;41.566;23.734;2024-03-29T07:02:18;95572.91;;;11.69;71.30
11810;BME280;5962;41.566;23.734;2024-03-29T07:04:45;95575.22;;;11.82;70.85
11810;BME280;5962;41.566;23.734;2024-03-29T07:07:12;95558.84;;;11.85;66.97
11810;BME280;5962;41.566;23.734;2024-03-29T07:09:39;95573.78;;;12.07;66.21
11810;BME280;5962;41.566;23.734;2024-03-29T07:12:06;95578.00;;;12.24;62.11
11810;BME280;5962;41.566;23.734;2024-03-29T07:14:34;95582.66;;;12.34;61.44
11810;BME280;5962;41.566;23.734;2024-03-29T07:17:01;95582.00;;;12.43;61.98
11810;BME280;5962;41.566;23.734;2024-03-29T07:19:28;95575.50;;;12.56;62.07
11810;BME280;5962;41.566;23.734;2024-03-29T07:21:55;95575.75;;;12.76;60.21
11810;BME280;5962;41.566;23.734;2024-03-29T07:24:22;95573.31;;;12.91;59.20
11810;BME280;5962;41.566;23.734;2024-03-29T07:26:49;95582.72;;;12.98;59.50
11810;BME280;5962;41.566;23.734;2024-03-29T07:29:16;95582.53;;;13.10;58.63
11810;BME280;5962;41.566;23.734;2024-03-29T07:31:44;95582.41;;;13.21;57.44
11810;BME280;5962;41.566;23.734;2024-03-29T07:34:11;95575.84;;;13.28;57.11
11810;BME280;5962;41.566;23.734;2024-03-29T07:36:38;95579.09;;;13.35;56.86
11810;BME280;5962;41.566;23.734;2024-03-29T07:39:06;95580.25;;;13.44;56.55
11810;BME280;5962;41.566;23.734;2024-03-29T07:41:33;95578.25;;;13.56;55.34
11810;BME280;5962;41.566;23.734;2024-03-29T07:44:00;95579.63;;;13.64;55.11
11810;BME280;5962;41.566;23.734;2024-03-29T07:46:31;95579.72;;;13.74;54.83
11810;BME280;5962;41.566;23.734;2024-03-29T07:49:00;95585.38;;;13.82;54.99
11810;BME280;5962;41.566;23.734;2024-03-29T07:51:27;95593.44;;;13.92;54.87
11810;BME280;5962;41.566;23.734;2024-03-29T07:53:54;95586.88;;;14.05;53.78
11810;BME280;5962;41.566;23.734;2024-03-29T07:56:21;95582.72;;;14.13;53.44
11810;BME280;5962;41.566;23.734;2024-03-29T07:58:50;95590.47;;;14.20;53.59
11810;BME280;5962;41.566;23.734;2024-03-29T08:01:19;95594.31;;;14.34;52.79
11810;BME280;5962;41.566;23.734;2024-03-29T08:03:46;95590.13;;;14.48;52.39
11810;BME280;5962;41.566;23.734;2024-03-29T08:06:15;95596.06;;;14.60;51.48
11810;BME280;5962;41.566;23.734;2024-03-29T08:08:43;95582.22;;;14.68;51.47
11810;BME280;5962;41.566;23.734;2024-03-29T08:11:11;95592.69;;;14.74;51.32
11810;BME280;5962;41.566;23.734;2024-03-29T08:13:38;95589.22;;;14.84;50.71
11810;BME280;5962;41.566;23.734;2024-03-29T08:16:05;95586.91;;;14.97;50.68
11810;BME280;5962;41.566;23.734;2024-03-29T08:18:33;95583.47;;;15.11;48.95
11810;BME280;5962;41.566;23.734;2024-03-29T08:21:00;95580.56;;;15.18;47.58
11810;BME280;5962;41.566;23.734;2024-03-29T08:23:29;95585.97;;;15.33;46.77
11810;BME280;5962;41.566;23.734;2024-03-29T08:25:56;95583.34;;;15.53;45.34
11810;BME280;5962;41.566;23.734;2024-03-29T08:28:23;95571.88;;;15.72;44.94
11810;BME280;5962;41.566;23.734;2024-03-29T08:30:58;95557.44;;;15.83;44.33
11810;BME280;5962;41.566;23.734;2024-03-29T08:33:25;95553.16;;;15.92;44.53
11810;BME280;5962;41.566;23.734;2024-03-29T08:35:52;95558.53;;;15.97;43.91
11810;BME280;5962;41.566;23.734;2024-03-29T08:38:19;95548.34;;;16.09;42.83
11810;BME280;5962;41.566;23.734;2024-03-29T08:40:47;95537.63;;;16.34;42.11
11810;BME280;5962;41.566;23.734;2024-03-29T08:43:15;95534.34;;;16.57;41.78
11810;BME280;5962;41.566;23.734;2024-03-29T08:45:43;95534.31;;;16.72;42.20
11810;BME280;5962;41.566;23.734;2024-03-29T08:48:10;95539.59;;;16.87;41.05
11810;BME280;5962;41.566;23.734;2024-03-29T08:50:38;95534.78;;;16.89;40.83
11810;BME280;5962;41.566;23.734;2024-03-29T08:53:05;95543.56;;;16.99;40.71
11810;BME280;5962;41.566;23.734;2024-03-29T08:55:33;95539.75;;;17.10;39.22
11810;BME280;5962;41.566;23.734;2024-03-29T08:58:03;95539.94;;;17.23;39.14
11810;BME280;5962;41.566;23.734;2024-03-29T09:00:31;95530.81;;;17.34;38.37
11810;BME280;5962;41.566;23.734;2024-03-29T09:02:58;95532.91;;;17.42;37.72
11810;BME280;5962;41.566;23.734;2024-03-29T09:05:26;95524.88;;;17.37;38.42
11810;BME280;5962;41.566;23.734;2024-03-29T09:07:54;95523.88;;;17.33;38.57
11810;BME280;5962;41.566;23.734;2024-03-29T09:10:22;95506.66;;;17.39;38.35
11810;BME280;5962;41.566;23.734;2024-03-29T09:12:50;95523.78;;;17.48;38.58
11810;BME280;5962;41.566;23.734;2024-03-29T09:15:19;95514.94;;;17.43;38.80
11810;BME280;5962;41.566;23.734;2024-03-29T09:17:46;95514.19;;;17.37;38.37
11810;BME280;5962;41.566;23.734;2024-03-29T09:20:13;95507.81;;;17.33;37.26
11810;BME280;5962;41.566;23.734;2024-03-29T09:22:41;95504.00;;;17.39;37.12
11810;BME280;5962;41.566;23.734;2024-03-29T09:25:08;95495.69;;;17.41;37.24
11810;BME280;5962;41.566;23.734;2024-03-29T09:27:39;95492.31;;;17.59;37.15
11810;BME280;5962;41.566;23.734;2024-03-29T09:30:10;95498.28;;;17.84;37.48
11810;BME280;5962;41.566;23.734;2024-03-29T09:32:39;95501.16;;;17.93;37.01
11810;BME280;5962;41.566;23.734;2024-03-29T09:35:06;95494.59;;;18.08;36.68
11810;BME280;5962;41.566;23.734;2024-03-29T09:37:33;95491.69;;;18.33;36.65
11810;BME280;5962;41.566;23.734;2024-03-29T09:40:02;95484.28;;;18.44;36.94
11810;BME280;5962;41.566;23.734;2024-03-29T09:42:32;95465.88;;;18.61;36.24
11810;BME280;5962;41.566;23.734;2024-03-29T09:45:01;95480.78;;;18.90;36.01
11810;BME280;5962;41.566;23.734;2024-03-29T09:47:30;95477.28;;;19.13;35.91
11810;BME280;5962;41.566;23.734;2024-03-29T09:50:02;95467.41;;;19.27;34.38
11810;BME280;5962;41.566;23.734;2024-03-29T09:52:31;95465.97;;;19.34;33.20
11810;BME280;5962;41.566;23.734;2024-03-29T09:55:00;95458.78;;;19.30;33.94
11810;BME280;5962;41.566;23.734;2024-03-29T09:57:27;95462.25;;;19.30;33.57
11810;BME280;5962;41.566;23.734;2024-03-29T09:59:56;95464.44;;;19.28;34.01
11810;BME280;5962;41.566;23.734;2024-03-29T10:02:26;95460.31;;;19.17;33.50
11810;BME280;5962;41.566;23.734;2024-03-29T10:04:55;95460.13;;;19.09;34.03
11810;BME280;5962;41.566;23.734;2024-03-29T10:07:24;95456.75;;;19.22;34.59
11810;BME280;5962;41.566;23.734;2024-03-29T10:09:52;95449.41;;;19.27;34.54
11810;BME280;5962;41.566;23.734;2024-03-29T10:12:21;95445.81;;;19.50;32.88
11810;BME280;5962;41.566;23.734;2024-03-29T10:14:48;95431.94;;;19.62;31.16
11810;BME280;5962;41.566;23.734;2024-03-29T10:17:18;95445.56;;;19.65;31.70
11810;BME280;5962;41.566;23.734;2024-03-29T10:19:45;95441.38;;;19.59;32.95
11810;BME280;5962;41.566;23.734;2024-03-29T10:22:13;95429.50;;;19.79;32.18
11810;BME280;5962;41.566;23.734;2024-03-29T10:24:41;95427.84;;;19.64;32.67
11810;BME280;5962;41.566;23.734;2024-03-29T10:27:08;95432.06;;;19.70;32.50
11810;BME280;5962;41.566;23.734;2024-03-29T10:29:35;95421.63;;;19.82;32.51
11810;BME280;5962;41.566;23.734;2024-03-29T10:32:03;95413.69;;;19.90;32.69
11810;BME280;5962;41.566;23.734;2024-03-29T10:34:30;95416.44;;;20.17;33.06
11810;BME280;5962;41.566;23.734;2024-03-29T10:37:01;95412.53;;;20.10;32.64
11810;BME280;5962;41.566;23.734;2024-03-29T10:39:29;95391.25;;;20.27;32.04
11810;BME280;5962;41.566;23.734;2024-03-29T10:41:59;95407.56;;;20.30;32.37
11810;BME280;5962;41.566;23.734;2024-03-29T10:44:26;95402.28;;;20.39;32.94
11810;BME280;5962;41.566;23.734;2024-03-29T10:46:56;95403.50;;;20.46;32.60
11810;BME280;5962;41.566;23.734;2024-03-29T10:49:24;95396.88;;;20.52;32.25
11810;BME280;5962;41.566;23.734;2024-03-29T10:51:52;95397.50;;;20.49;31.67
11810;BME280;5962;41.566;23.734;2024-03-29T10:54:22;95394.00;;;20.62;32.08
11810;BME280;5962;41.566;23.734;2024-03-29T10:56:56;95391.28;;;20.76;31.85
11810;BME280;5962;41.566;23.734;2024-03-29T10:59:32;95391.72;;;20.83;30.80
11810;BME280;5962;41.566;23.734;2024-03-29T11:02:11;95381.03;;;21.13;30.71
11810;BME280;5962;41.566;23.734;2024-03-29T11:04:39;95384.16;;;21.06;29.67
11810;BME280;5962;41.566;23.734;2024-03-29T11:07:13;95383.59;;;20.96;29.47
11810;BME280;5962;41.566;23.734;2024-03-29T11:09:42;95379.44;;;21.12;29.63
11810;BME280;5962;41.566;23.734;2024-03-29T11:12:13;95383.25;;;21.33;29.97
11810;BME280;5962;41.566;23.734;2024-03-29T11:14:46;95383.69;;;21.48;29.61
11810;BME280;5962;41.566;23.734;2024-03-29T11:17:17;95379.84;;;21.63;29.41
11810;BME280;5962;41.566;23.734;2024-03-29T11:19:45;95381.06;;;21.79;28.65
11810;BME280;5962;41.566;23.734;2024-03-29T11:22:12;95379.00;;;21.84;28.74
11810;BME280;5962;41.566;23.734;2024-03-29T11:24:39;95372.19;;;21.86;29.60
11810;BME280;5962;41.566;23.734;2024-03-29T11:27:08;95375.34;;;21.80;29.08
11810;BME280;5962;41.566;23.734;2024-03-29T11:29:36;95361.31;;;22.00;29.27
11810;BME280;5962;41.566;23.734;2024-03-29T11:32:07;95366.78;;;22.08;27.20
11810;BME280;5962;41.566;23.734;2024-03-29T11:34:34;95355.63;;;22.01;27.60
11810;BME280;5962;41.566;23.734;2024-03-29T11:37:09;95352.78;;;22.06;26.00
11810;BME280;5962;41.566;23.734;2024-03-29T11:39:36;95353.09;;;22.05;27.22
11810;BME280;5962;41.566;23.734;2024-03-29T11:42:03;95352.47;;;22.08;26.98
11810;BME280;5962;41.566;23.734;2024-03-29T11:44:30;95348.22;;;22.15;26.06
11810;BME280;5962;41.566;23.734;2024-03-29T11:46:58;95340.78;;;22.21;27.57
11810;BME280;5962;41.566;23.734;2024-03-29T11:49:26;95347.47;;;22.32;27.18
11810;BME280;5962;41.566;23.734;2024-03-29T11:52:02;95340.22;;;22.41;26.38
11810;BME280;5962;41.566;23.734;2024-03-29T11:54:36;95342.47;;;22.47;26.20
11810;BME280;5962;41.566;23.734;2024-03-29T11:57:04;95346.78;;;22.57;25.78
11810;BME280;5962;41.566;23.734;2024-03-29T11:59:31;95334.06;;;22.49;26.14
11810;BME280;5962;41.566;23.734;2024-03-29T12:01:58;95336.00;;;22.57;24.91
11810;BME280;5962;41.566;23.734;2024-03-29T12:04:25;95334.22;;;22.61;24.95
11810;BME280;5962;41.566;23.734;2024-03-29T12:06:53;95317.91;;;22.74;26.39
11810;BME280;5962;41.566;23.734;2024-03-29T12:09:20;95328.72;;;22.83;27.11
11810;BME280;5962;41.566;23.734;2024-03-29T12:11:48;95312.50;;;22.99;26.99
11810;BME280;5962;41.566;23.734;2024-03-29T12:14:15;95306.34;;;23.07;27.43
11810;BME280;5962;41.566;23.734;2024-03-29T12:16:43;95313.16;;;22.96;27.41
11810;BME280;5962;41.566;23.734;2024-03-29T12:19:21;95304.88;;;22.93;27.48
11810;BME280;5962;41.566;23.734;2024-03-29T12:21:49;95317.25;;;23.02;27.00
11810;BME280;5962;41.566;23.734;2024-03-29T12:24:18;95297.59;;;23.10;26.92
11810;BME280;5962;41.566;23.734;2024-03-29T12:26:45;95307.28;;;23.11;27.51
11810;BME280;5962;41.566;23.734;2024-03-29T12:29:13;95304.75;;;23.06;27.42
11810;BME280;5962;41.566;23.734;2024-03-29T12:31:40;95293.94;;;23.15;27.33
11810;BME280;5962;41.566;23.734;2024-03-29T12:34:07;95307.44;;;23.15;27.26
11810;BME280;5962;41.566;23.734;2024-03-29T12:36:35;95291.53;;;23.13;26.84
11810;BME280;5962;41.566;23.734;2024-03-29T12:39:02;95265.94;;;23.02;26.94
11810;BME280;5962;41.566;23.734;2024-03-29T12:41:33;95303.94;;;23.14;26.56
11810;BME280;5962;41.566;23.734;2024-03-29T12:44:01;95299.34;;;23.15;26.72
11810;BME280;5962;41.566;23.734;2024-03-29T12:46:28;95294.56;;;23.20;26.35
11810;BME280;5962;41.566;23.734;2024-03-29T12:48:58;95275.16;;;23.18;26.64
11810;BME280;5962;41.566;23.734;2024-03-29T12:51:27;95268.31;;;23.21;26.09
11810;BME280;5962;41.566;23.734;2024-03-29T12:53:54;95294.09;;;23.18;26.51
11810;BME280;5962;41.566;23.734;2024-03-29T12:56:26;95265.94;;;23.19;26.23
11810;BME280;5962;41.566;23.734;2024-03-29T12:58:54;95280.72;;;23.22;27.00
11810;BME280;5962;41.566;23.734;2024-03-29T13:01:21;95264.69;;;23.17;26.60
11810;BME280;5962;41.566;23.734;2024-03-29T13:03:49;95270.72;;;23.14;26.27
11810;BME280;5962;41.566;23.734;2024-03-29T13:06:16;95270.09;;;23.17;27.11
11810;BME280;5962;41.566;23.734;2024-03-29T13:08:43;95275.16;;;23.27;27.43